createdAt,value
2022-08-30T00:01:06.696Z,43.07
2022-08-30T00:03:42.834Z,42.77
2022-08-30T00:06:16.492Z,42.98
2022-08-30T00:08:50.349Z,43.18
2022-08-30T00:11:27.218Z,43.17
2022-08-30T00:14:00.011Z,43.09
2022-08-30T00:16:32.254Z,43.02
2022-08-30T00:19:05.028Z,43.13
2022-08-30T00:21:37.147Z,43.07
2022-08-30T00:24:09.434Z,43.16
2022-08-30T00:26:41.630Z,43.19
2022-08-30T00:29:14.135Z,43.32
2022-08-30T00:31:46.294Z,43.28
2022-08-30T00:34:18.530Z,43.36
2022-08-30T00:36:50.759Z,43.20
2022-08-30T00:39:22.942Z,43.37
2022-08-30T00:41:55.110Z,43.22
2022-08-30T00:44:27.489Z,43.33
2022-08-30T00:46:59.798Z,43.31
2022-08-30T00:49:34.209Z,43.46
2022-08-30T00:52:08.019Z,43.41
2022-08-30T00:54:41.281Z,43.11
2022-08-30T00:57:16.154Z,43.19
2022-08-30T00:59:50.990Z,43.35
2022-08-30T01:02:25.043Z,43.39
2022-08-30T01:04:57.873Z,43.45
2022-08-30T01:07:30.128Z,43.34
2022-08-30T01:10:02.365Z,43.34
2022-08-30T01:12:38.020Z,43.23
2022-08-30T01:15:14.548Z,43.39
2022-08-30T01:17:49.047Z,43.25
2022-08-30T01:20:31.153Z,43.50
2022-08-30T01:23:12.647Z,43.20
2022-08-30T01:25:46.564Z,43.56
2022-08-30T01:28:22.212Z,43.46
2022-08-30T01:30:55.033Z,43.50
2022-08-30T01:33:27.604Z,43.54
2022-08-30T01:36:06.070Z,43.28
2022-08-30T01:38:43.233Z,43.57
2022-08-30T01:41:18.092Z,43.57
2022-08-30T01:43:51.280Z,43.41
2022-08-30T01:46:25.264Z,43.77
2022-08-30T01:48:59.722Z,43.58
2022-08-30T01:51:32.908Z,44.08
2022-08-30T01:54:05.543Z,43.96
2022-08-30T01:56:37.719Z,44.06
2022-08-30T01:59:09.995Z,43.99
2022-08-30T02:01:43.228Z,44.43
2022-08-30T02:04:15.764Z,44.29
2022-08-30T02:06:48.047Z,44.29
2022-08-30T02:09:20.545Z,44.48
2022-08-30T02:11:52.938Z,44.59
2022-08-30T02:14:25.199Z,44.62
2022-08-30T02:16:57.424Z,44.65
2022-08-30T02:19:29.789Z,44.58
2022-08-30T02:22:02.399Z,44.74
2022-08-30T02:24:34.777Z,44.58
2022-08-30T02:27:07.717Z,44.82
2022-08-30T02:29:39.929Z,44.53
2022-08-30T02:32:12.129Z,44.39
2022-08-30T02:34:44.681Z,44.46
2022-08-30T02:37:16.965Z,44.64
2022-08-30T02:39:49.116Z,44.44
2022-08-30T02:42:21.385Z,44.57
2022-08-30T02:44:53.549Z,44.63
2022-08-30T02:47:25.720Z,44.31
2022-08-30T02:49:57.933Z,44.41
2022-08-30T02:52:30.712Z,44.53
2022-08-30T02:55:03.516Z,44.05
2022-08-30T02:57:35.915Z,44.19
2022-08-30T03:00:12.619Z,44.42
2022-08-30T03:02:44.972Z,44.34
2022-08-30T03:05:18.422Z,44.08
2022-08-30T03:07:50.624Z,44.07
2022-08-30T03:10:23.284Z,44.08
2022-08-30T03:12:55.503Z,44.12
2022-08-30T03:15:28.211Z,43.97
2022-08-30T03:18:00.767Z,44.10
2022-08-30T03:20:35.270Z,43.99
2022-08-30T03:23:07.388Z,44.10
2022-08-30T03:25:40.012Z,44.17
2022-08-30T03:28:15.285Z,43.99
2022-08-30T03:30:48.247Z,43.90
2022-08-30T03:33:20.580Z,44.15
2022-08-30T03:35:54.223Z,44.00
2022-08-30T03:38:26.843Z,44.27
2022-08-30T03:40:59.036Z,44.55
2022-08-30T03:43:33.388Z,44.49
2022-08-30T03:46:06.122Z,44.56
2022-08-30T03:48:38.783Z,44.81
2022-08-30T03:51:11.003Z,44.87
2022-08-30T03:53:43.232Z,44.95
2022-08-30T03:56:15.771Z,45.16
2022-08-30T03:58:48.283Z,45.24
2022-08-30T04:01:20.598Z,45.32
2022-08-30T04:03:52.827Z,45.49
2022-08-30T04:06:25.063Z,45.61
2022-08-30T04:08:57.351Z,45.66
2022-08-30T04:11:29.552Z,45.63
2022-08-30T04:14:01.822Z,45.90
2022-08-30T04:16:34.100Z,45.93
2022-08-30T04:19:07.043Z,45.90
2022-08-30T04:21:42.850Z,46.16
2022-08-30T04:24:16.259Z,46.06
2022-08-30T04:26:48.529Z,46.23
2022-08-30T04:29:20.817Z,46.39
2022-08-30T04:31:53.075Z,46.25
2022-08-30T04:34:25.243Z,46.54
2022-08-30T04:36:57.482Z,46.66
2022-08-30T04:39:31.066Z,46.43
2022-08-30T04:42:04.678Z,46.48
2022-08-30T04:44:36.915Z,46.62
2022-08-30T04:47:10.274Z,46.55
2022-08-30T04:49:42.711Z,46.64
2022-08-30T04:52:14.861Z,46.99
2022-08-30T04:54:47.093Z,47.06
2022-08-30T04:57:19.512Z,47.01
2022-08-30T04:59:51.816Z,46.81
2022-08-30T05:02:26.115Z,46.99
2022-08-30T05:05:15.687Z,46.87
2022-08-30T05:07:47.954Z,47.12
2022-08-30T05:10:20.512Z,47.16
2022-08-30T05:12:53.065Z,47.00
2022-08-30T05:15:25.459Z,47.17
2022-08-30T05:17:57.778Z,46.73
2022-08-30T05:20:30.246Z,46.87
2022-08-30T05:23:02.791Z,46.81
2022-08-30T05:25:38.992Z,46.86
2022-08-30T05:28:12.335Z,46.92
2022-08-30T05:30:44.571Z,46.99
2022-08-30T05:33:16.801Z,46.85
2022-08-30T05:35:48.968Z,47.03
2022-08-30T05:38:21.212Z,46.97
2022-08-30T05:40:56.614Z,47.07
2022-08-30T05:43:30.054Z,47.04
2022-08-30T05:46:05.443Z,47.07
2022-08-30T05:48:38.502Z,46.93
2022-08-30T05:51:13.542Z,46.94
2022-08-30T05:53:46.736Z,46.67
2022-08-30T05:56:21.648Z,46.61
2022-08-30T05:58:57.211Z,46.60
2022-08-30T06:01:33.273Z,46.54
2022-08-30T06:04:07.596Z,46.66
2022-08-30T06:06:42.319Z,46.35
2022-08-30T06:09:16.004Z,46.33
2022-08-30T06:11:48.841Z,46.24
2022-08-30T06:14:21.109Z,46.25
2022-08-30T06:16:53.852Z,45.94
2022-08-30T06:19:26.045Z,46.00
2022-08-30T06:21:58.208Z,45.82
2022-08-30T06:24:53.612Z,45.97
2022-08-30T06:27:22.683Z,45.55
2022-08-30T06:29:55.619Z,45.34
2022-08-30T06:32:27.898Z,45.16
2022-08-30T06:35:00.089Z,44.89
2022-08-30T06:37:33.146Z,44.82
2022-08-30T06:40:06.690Z,44.64
2022-08-30T06:42:38.851Z,44.31
2022-08-30T06:45:12.055Z,44.14
2022-08-30T06:47:44.856Z,44.02
2022-08-30T06:50:19.000Z,43.51
2022-08-30T06:52:51.378Z,43.55
2022-08-30T06:55:23.990Z,43.27
2022-08-30T06:57:56.239Z,43.13
2022-08-30T07:00:29.268Z,42.82
2022-08-30T07:03:02.764Z,42.51
2022-08-30T07:05:35.719Z,42.52
2022-08-30T07:08:08.178Z,42.45
2022-08-30T07:10:43.054Z,41.93
2022-08-30T07:13:15.388Z,41.47
2022-08-30T07:15:48.027Z,41.39
2022-08-30T07:18:38.804Z,41.53
2022-08-30T07:21:13.239Z,41.39
2022-08-30T07:23:53.064Z,41.03
2022-08-30T07:26:28.819Z,40.55
2022-08-30T07:29:03.012Z,40.18
2022-08-30T07:31:36.267Z,40.30
2022-08-30T07:34:09.668Z,39.82
2022-08-30T07:36:42.139Z,39.59
2022-08-30T07:39:14.325Z,39.15
2022-08-30T07:41:46.586Z,38.71
2022-08-30T07:44:18.864Z,39.13
2022-08-30T07:46:51.086Z,39.00
2022-08-30T07:49:23.398Z,38.33
2022-08-30T07:51:55.592Z,38.45
2022-08-30T07:54:27.868Z,38.38
2022-08-30T07:57:00.014Z,37.84
2022-08-30T07:59:35.619Z,37.96
2022-08-30T08:02:08.748Z,37.51
2022-08-30T08:04:41.099Z,37.08
2022-08-30T08:07:13.428Z,36.73
2022-08-30T08:09:45.908Z,36.61
2022-08-30T08:12:18.219Z,36.14
2022-08-30T08:14:50.623Z,36.07
2022-08-30T08:17:22.886Z,36.11
2022-08-30T08:19:55.143Z,35.81
2022-08-30T08:22:27.299Z,35.49
2022-08-30T08:24:59.592Z,35.51
2022-08-30T08:27:31.759Z,35.53
2022-08-30T08:30:04.178Z,35.44
2022-08-30T08:32:36.827Z,35.18
2022-08-30T08:35:11.651Z,34.79
2022-08-30T08:37:44.839Z,34.64
2022-08-30T08:40:20.853Z,34.54
2022-08-30T08:43:03.863Z,34.36
2022-08-30T08:45:57.485Z,34.30
2022-08-30T08:48:58.991Z,33.97
2022-08-30T08:51:53.663Z,34.07
2022-08-30T08:54:32.151Z,33.67
2022-08-30T08:57:04.572Z,33.31
2022-08-30T08:59:36.781Z,32.42
2022-08-30T09:02:24.203Z,32.51
2022-08-30T09:05:01.075Z,32.14
2022-08-30T09:07:37.343Z,31.85
2022-08-30T09:10:11.189Z,31.84
2022-08-30T09:12:45.254Z,31.41
2022-08-30T09:15:22.868Z,31.15
2022-08-30T09:17:58.084Z,31.20
2022-08-30T09:20:35.043Z,31.13
2022-08-30T09:23:30.168Z,30.32
2022-08-30T09:26:05.945Z,30.10
2022-08-30T09:28:49.727Z,30.33
2022-08-30T09:31:24.805Z,30.46
2022-08-30T09:34:05.490Z,29.96
2022-08-30T09:36:45.045Z,30.10
2022-08-30T09:39:22.458Z,29.31
2022-08-30T09:42:19.995Z,29.50
2022-08-30T09:44:52.941Z,29.14
2022-08-30T09:47:31.863Z,28.81
2022-08-30T09:50:10.855Z,28.82
2022-08-30T09:53:01.812Z,28.76
2022-08-30T09:55:56.610Z,28.66
2022-08-30T09:58:42.315Z,28.45
2022-08-30T10:01:21.565Z,28.29
2022-08-30T10:04:04.013Z,28.06
2022-08-30T10:06:42.943Z,27.69
2022-08-30T10:09:26.657Z,27.60
2022-08-30T10:12:07.461Z,27.06
2022-08-30T10:14:58.252Z,27.07
2022-08-30T10:17:49.463Z,26.78
2022-08-30T10:20:31.277Z,26.43
2022-08-30T10:23:10.860Z,26.42
2022-08-30T10:25:46.742Z,26.38
2022-08-30T10:28:28.750Z,25.96
2022-08-30T10:31:04.695Z,25.89
2022-08-30T10:33:43.520Z,25.82
2022-08-30T10:36:18.185Z,25.55
2022-08-30T10:38:54.958Z,25.35
2022-08-30T10:41:35.685Z,24.95
2022-08-30T10:44:16.678Z,24.92
2022-08-30T10:47:00.657Z,24.91
2022-08-30T10:49:40.447Z,24.85
2022-08-30T10:52:25.692Z,24.59
2022-08-30T10:55:05.956Z,24.52
2022-08-30T10:57:38.849Z,24.28
2022-08-30T11:00:23.945Z,24.02
2022-08-30T11:03:21.051Z,24.21
2022-08-30T11:06:16.740Z,23.92
2022-08-30T11:09:08.183Z,24.16
2022-08-30T11:12:01.034Z,24.18
2022-08-30T11:14:34.309Z,24.26
2022-08-30T11:17:06.612Z,24.16
2022-08-30T11:19:42.451Z,24.36
2022-08-30T11:22:23.011Z,24.58
2022-08-30T11:25:12.684Z,24.59
2022-08-30T11:27:51.392Z,24.52
2022-08-30T11:31:05.492Z,24.60
2022-08-30T11:33:49.600Z,24.68
2022-08-30T11:37:01.595Z,24.45
2022-08-30T11:39:55.023Z,24.81
2022-08-30T11:42:35.082Z,24.68
2022-08-30T11:45:40.635Z,24.75
2022-08-30T11:48:53.699Z,24.63
2022-08-30T11:52:23.837Z,24.76
2022-08-30T11:55:01.708Z,24.78
2022-08-30T11:57:46.659Z,24.91
2022-08-30T12:00:35.843Z,25.00
2022-08-30T12:03:28.676Z,25.16
2022-08-30T12:06:04.093Z,25.39
2022-08-30T12:09:02.274Z,25.45
2022-08-30T12:12:05.738Z,25.61
2022-08-30T12:14:52.076Z,25.53
2022-08-30T12:18:08.313Z,25.60
2022-08-30T12:20:50.439Z,25.86
2022-08-30T12:23:28.620Z,26.00
2022-08-30T12:26:15.966Z,25.96
2022-08-30T12:28:51.116Z,26.01
2022-08-30T12:31:27.035Z,26.00
2022-08-30T12:34:03.379Z,26.09
2022-08-30T12:36:38.991Z,26.22
2022-08-30T12:39:17.887Z,25.87
2022-08-30T12:41:50.202Z,25.95
2022-08-30T12:44:26.965Z,26.07
2022-08-30T12:47:03.295Z,26.24
2022-08-30T12:49:41.201Z,26.04
2022-08-30T12:52:24.452Z,26.22
2022-08-30T12:55:16.292Z,26.20
2022-08-30T12:58:03.015Z,26.26
2022-08-30T13:00:38.387Z,26.09
2022-08-30T13:03:31.406Z,26.15
2022-08-30T13:06:03.907Z,26.19
2022-08-30T13:08:38.564Z,26.38
2022-08-30T13:11:13.852Z,26.36
2022-08-30T13:13:52.344Z,26.47
2022-08-30T13:16:36.023Z,26.38
2022-08-30T13:19:29.530Z,26.40
2022-08-30T13:22:03.432Z,26.36
2022-08-30T13:24:35.886Z,26.33
2022-08-30T13:27:11.471Z,26.29
2022-08-30T13:29:43.654Z,26.17
2022-08-30T13:32:17.455Z,26.51
2022-08-30T13:34:49.722Z,26.39
2022-08-30T13:40:18.639Z,26.52
2022-08-30T13:42:51.613Z,26.65
2022-08-30T13:48:21.318Z,26.62
2022-08-30T13:50:57.214Z,26.52
2022-08-30T13:56:21.640Z,26.49
2022-08-30T13:58:53.966Z,26.63
2022-08-30T14:01:29.750Z,26.54
2022-08-30T14:04:17.580Z,26.78
2022-08-30T14:09:42.188Z,26.70
2022-08-30T14:12:14.621Z,26.70
2022-08-30T14:14:46.916Z,26.72
2022-08-30T14:17:19.416Z,26.89
2022-08-30T14:19:51.956Z,26.87
2022-08-30T14:22:25.978Z,26.91
2022-08-30T14:24:58.324Z,27.11
2022-08-30T14:27:30.894Z,27.08
2022-08-30T14:30:05.163Z,27.02
2022-08-30T14:32:37.338Z,27.08
2022-08-30T14:35:11.442Z,27.29
2022-08-30T14:37:43.651Z,27.13
2022-08-30T14:40:16.844Z,27.08
2022-08-30T14:42:49.136Z,27.23
2022-08-30T14:45:21.786Z,27.34
2022-08-30T14:47:55.179Z,27.41
2022-08-30T14:50:27.968Z,27.55
2022-08-30T14:53:00.302Z,27.76
2022-08-30T14:55:33.998Z,27.71
2022-08-30T14:58:07.086Z,27.64
2022-08-30T15:00:39.758Z,28.21
2022-08-30T15:03:12.733Z,28.26
2022-08-30T15:05:49.156Z,28.70
2022-08-30T15:08:25.120Z,28.94
2022-08-30T15:10:58.832Z,28.99
2022-08-30T15:13:31.049Z,29.30
2022-08-30T15:16:04.074Z,29.33
2022-08-30T15:18:36.255Z,29.44
2022-08-30T15:21:08.716Z,29.61
2022-08-30T15:23:41.670Z,29.78
2022-08-30T15:26:13.833Z,29.50
2022-08-30T15:28:47.191Z,29.90
2022-08-30T15:31:22.826Z,29.81
2022-08-30T15:33:55.428Z,29.97
2022-08-30T15:36:30.202Z,29.85
2022-08-30T15:39:02.636Z,30.09
2022-08-30T15:41:35.524Z,29.85
2022-08-30T15:44:10.199Z,30.30
2022-08-30T15:46:45.981Z,30.08
2022-08-30T15:49:20.179Z,30.05
2022-08-30T15:51:54.454Z,30.34
2022-08-30T15:54:27.220Z,30.44
2022-08-30T15:57:00.276Z,30.56
2022-08-30T15:59:35.371Z,30.81
2022-08-30T16:02:07.922Z,30.86
2022-08-30T16:04:40.559Z,30.80
2022-08-30T16:07:13.814Z,30.95
2022-08-30T16:09:46.084Z,30.84
2022-08-30T16:12:23.631Z,30.92
2022-08-30T16:14:56.184Z,31.14
2022-08-30T16:17:28.640Z,31.39
2022-08-30T16:20:02.906Z,31.67
2022-08-30T16:22:35.052Z,31.70
2022-08-30T16:25:08.482Z,31.86
2022-08-30T16:27:43.154Z,32.43
2022-08-30T16:30:17.104Z,32.69
2022-08-30T16:32:49.908Z,32.63
2022-08-30T16:35:23.894Z,32.44
2022-08-30T16:37:56.188Z,32.30
2022-08-30T16:40:28.452Z,32.57
2022-08-30T16:43:00.633Z,32.74
2022-08-30T16:45:34.666Z,32.43
2022-08-30T16:48:07.398Z,32.83
2022-08-30T16:50:41.932Z,32.77
2022-08-30T16:53:15.234Z,32.67
2022-08-30T16:55:47.389Z,32.78
2022-08-30T16:58:22.256Z,33.04
2022-08-30T17:00:56.743Z,32.92
2022-08-30T17:03:29.079Z,32.97
2022-08-30T17:06:03.236Z,33.28
2022-08-30T17:08:36.119Z,33.34
2022-08-30T17:11:08.823Z,33.61
2022-08-30T17:13:41.960Z,33.58
2022-08-30T17:16:14.366Z,33.86
2022-08-30T17:18:46.705Z,33.74
2022-08-30T17:21:18.935Z,34.15
2022-08-30T17:23:51.401Z,34.09
2022-08-30T17:26:23.564Z,34.25
2022-08-30T17:28:58.199Z,34.36
2022-08-30T17:31:31.591Z,34.53
2022-08-30T17:34:05.932Z,34.70
2022-08-30T17:36:39.199Z,34.89
2022-08-30T17:39:12.007Z,35.07
2022-08-30T17:41:50.729Z,35.14
2022-08-30T17:44:28.654Z,35.37
2022-08-30T17:47:01.452Z,35.35
2022-08-30T17:49:34.644Z,35.56
2022-08-30T17:52:07.943Z,35.61
2022-08-30T17:54:43.739Z,35.91
2022-08-30T17:57:15.923Z,35.84
2022-08-30T17:59:48.774Z,36.14
2022-08-30T18:02:22.795Z,36.28
2022-08-30T18:05:03.331Z,36.45
2022-08-30T18:07:35.983Z,36.40
2022-08-30T18:10:10.374Z,36.56
2022-08-30T18:12:42.597Z,36.75
2022-08-30T18:15:15.572Z,36.87
2022-08-30T18:17:49.307Z,37.00
2022-08-30T18:20:22.329Z,37.26
2022-08-30T18:22:58.770Z,37.37
2022-08-30T18:25:31.059Z,37.43
2022-08-30T18:28:03.475Z,37.55
2022-08-30T18:30:41.581Z,37.55
2022-08-30T18:33:14.985Z,37.83
2022-08-30T18:35:51.031Z,37.83
2022-08-30T18:38:25.771Z,37.77
2022-08-30T18:41:03.153Z,37.84
2022-08-30T18:43:36.059Z,37.78
2022-08-30T18:46:10.389Z,37.77
2022-08-30T18:48:44.737Z,37.66
2022-08-30T18:51:19.902Z,37.67
2022-08-30T18:53:50.975Z,37.58
2022-08-30T18:56:23.532Z,37.59
2022-08-30T18:59:00.955Z,37.60
2022-08-30T19:01:34.890Z,37.60
2022-08-30T19:04:09.084Z,37.63
2022-08-30T19:06:44.291Z,37.73
2022-08-30T19:09:16.935Z,37.76
2022-08-30T19:11:49.746Z,37.71
2022-08-30T19:14:24.738Z,37.80
2022-08-30T19:17:06.065Z,37.79
2022-08-30T19:19:48.718Z,37.77
2022-08-30T19:22:26.613Z,37.74
2022-08-30T19:25:00.931Z,37.82
2022-08-30T19:27:38.198Z,37.77
2022-08-30T19:30:21.578Z,37.87
2022-08-30T19:32:56.463Z,37.84
2022-08-30T19:35:30.186Z,37.94
2022-08-30T19:38:03.058Z,37.93
2022-08-30T19:40:35.364Z,38.05
2022-08-30T19:43:07.669Z,37.96
2022-08-30T19:45:40.235Z,38.15
2022-08-30T19:48:12.429Z,38.22
2022-08-30T19:50:45.632Z,38.29
2022-08-30T19:53:20.281Z,38.27
2022-08-30T19:55:54.286Z,38.34
2022-08-30T19:58:26.453Z,38.50
2022-08-30T20:01:12.148Z,38.60
2022-08-30T20:03:47.004Z,38.75
2022-08-30T20:06:19.680Z,38.82
2022-08-30T20:08:52.111Z,38.82
2022-08-30T20:11:29.182Z,39.02
2022-08-30T20:14:01.446Z,39.18
2022-08-30T20:16:37.704Z,39.31
2022-08-30T20:19:14.907Z,39.35
2022-08-30T20:21:47.262Z,39.50
2022-08-30T20:24:22.639Z,39.59
2022-08-30T20:26:54.806Z,39.66
2022-08-30T20:29:27.014Z,39.61
2022-08-30T20:31:59.189Z,39.78
2022-08-30T20:34:31.507Z,39.99
2022-08-30T20:37:03.817Z,39.93
2022-08-30T20:39:36.142Z,40.05
2022-08-30T20:42:09.076Z,39.89
2022-08-30T20:44:41.718Z,40.01
2022-08-30T20:47:14.332Z,40.13
2022-08-30T20:49:46.500Z,40.14
2022-08-30T20:52:18.871Z,40.18
2022-08-30T20:54:54.526Z,40.44
2022-08-30T20:57:27.076Z,40.35
2022-08-30T21:00:01.688Z,40.59
2022-08-30T21:02:34.413Z,40.83
2022-08-30T21:05:08.381Z,40.92
2022-08-30T21:07:41.409Z,41.15
2022-08-30T21:10:21.199Z,40.94
2022-08-30T21:12:56.396Z,41.30
2022-08-30T21:15:37.368Z,41.30
2022-08-30T21:18:10.585Z,41.36
2022-08-30T21:20:42.831Z,41.34
2022-08-30T21:23:15.036Z,41.53
2022-08-30T21:25:47.240Z,41.48
2022-08-30T21:28:19.946Z,41.77
2022-08-30T21:30:52.342Z,41.76
2022-08-30T21:33:24.539Z,42.00
2022-08-30T21:36:16.599Z,42.07
2022-08-30T21:38:48.716Z,42.18
2022-08-30T21:41:22.129Z,42.38
2022-08-30T21:44:01.235Z,42.84
2022-08-30T21:46:34.859Z,42.75
2022-08-30T21:49:09.839Z,42.69
2022-08-30T21:51:45.443Z,42.95
2022-08-30T21:54:19.393Z,42.86
2022-08-30T21:56:53.499Z,43.01
2022-08-30T21:59:26.137Z,43.13
2022-08-30T22:01:59.249Z,42.96
2022-08-30T22:04:31.748Z,43.14
2022-08-30T22:07:06.550Z,42.97
2022-08-30T22:09:39.292Z,43.07
2022-08-30T22:12:12.015Z,43.19
2022-08-30T22:14:44.224Z,43.16
2022-08-30T22:17:17.033Z,43.17
2022-08-30T22:19:49.263Z,42.99
2022-08-30T22:22:21.450Z,43.22
2022-08-30T22:24:53.631Z,43.34
2022-08-30T22:27:25.845Z,43.41
2022-08-30T22:29:58.074Z,43.52
2022-08-30T22:32:30.307Z,43.50
2022-08-30T22:35:02.507Z,43.67
2022-08-30T22:37:34.759Z,43.49
2022-08-30T22:40:07.831Z,43.79
2022-08-30T22:42:40.119Z,43.63
2022-08-30T22:45:20.671Z,43.91
2022-08-30T22:47:52.915Z,43.90
2022-08-30T22:50:25.501Z,43.67
2022-08-30T22:52:57.736Z,43.76
2022-08-30T22:55:30.514Z,43.93
2022-08-30T22:58:02.774Z,43.94
2022-08-30T23:00:35.377Z,44.05
2022-08-30T23:03:08.214Z,44.12
2022-08-30T23:05:40.675Z,44.17
2022-08-30T23:08:12.881Z,44.23
2022-08-30T23:10:45.896Z,44.32
2022-08-30T23:13:18.258Z,44.37
2022-08-30T23:15:50.676Z,44.35
2022-08-30T23:18:22.893Z,44.47
2022-08-30T23:20:55.087Z,44.36
2022-08-30T23:23:44.567Z,44.73
2022-08-30T23:26:36.460Z,44.36
2022-08-30T23:29:27.986Z,44.67
2022-08-30T23:32:18.360Z,44.66
2022-08-30T23:35:07.855Z,44.57
2022-08-30T23:37:57.728Z,44.59
2022-08-30T23:40:47.384Z,44.89
2022-08-30T23:43:37.001Z,44.69
2022-08-30T23:46:26.757Z,44.44
2022-08-30T23:49:16.778Z,44.80
2022-08-30T23:52:06.605Z,44.73
2022-08-30T23:54:57.428Z,45.03
2022-08-30T23:57:47.789Z,44.92
